sensor_id;sensor_type;location;lat;lon;timestamp;temperature;humidity
48734;DHT22;34530;52.084;5.146;2022-12-07T00:01:21;16.50;74.10
48734;DHT22;34530;52.084;5.146;2022-12-07T00:03:48;16.40;74.10
48734;DHT22;34530;52.084;5.146;2022-12-07T00:06:16;16.40;74.10
48734;DHT22;34530;52.084;5.146;2022-12-07T00:08:42;16.40;74.10
48734;DHT22;34530;52.084;5.146;2022-12-07T00:13:35;16.40;74.10
48734;DHT22;34530;52.084;5.146;2022-12-07T00:16:06;16.40;74.10
48734;DHT22;34530;52.084;5.146;2022-12-07T00:18:32;16.40;74.10
48734;DHT22;34530;52.084;5.146;2022-12-07T00:21:10;16.40;74.10
48734;DHT22;34530;52.084;5.146;2022-12-07T00:23:35;16.40;74.00
48734;DHT22;34530;52.084;5.146;2022-12-07T00:26:10;16.40;74.10
48734;DHT22;34530;52.084;5.146;2022-12-07T00:28:36;16.40;74.00
48734;DHT22;34530;52.084;5.146;2022-12-07T00:31:11;16.30;74.00
48734;DHT22;34530;52.084;5.146;2022-12-07T00:33:37;16.30;73.90
48734;DHT22;34530;52.084;5.146;2022-12-07T00:36:06;16.30;74.00
48734;DHT22;34530;52.084;5.146;2022-12-07T00:38:34;16.30;73.90
48734;DHT22;34530;52.084;5.146;2022-12-07T00:41:02;16.30;73.90
48734;DHT22;34530;52.084;5.146;2022-12-07T00:43:28;16.30;73.90
48734;DHT22;34530;52.084;5.146;2022-12-07T00:45:55;16.30;74.00
48734;DHT22;34530;52.084;5.146;2022-12-07T00:48:21;16.30;74.00
48734;DHT22;34530;52.084;5.146;2022-12-07T00:50:47;16.30;73.90
48734;DHT22;34530;52.084;5.146;2022-12-07T00:53:13;16.30;74.00
48734;DHT22;34530;52.084;5.146;2022-12-07T00:55:39;16.30;73.90
48734;DHT22;34530;52.084;5.146;2022-12-07T00:58:05;16.30;74.00
48734;DHT22;34530;52.084;5.146;2022-12-07T01:00:30;16.30;74.20
48734;DHT22;34530;52.084;5.146;2022-12-07T01:02:56;16.20;73.80
48734;DHT22;34530;52.084;5.146;2022-12-07T01:05:22;16.20;73.80
48734;DHT22;34530;52.084;5.146;2022-12-07T01:07:47;16.20;73.90
48734;DHT22;34530;52.084;5.146;2022-12-07T01:10:14;16.20;73.90
48734;DHT22;34530;52.084;5.146;2022-12-07T01:12:40;16.20;73.80
48734;DHT22;34530;52.084;5.146;2022-12-07T01:15:07;16.20;73.90
48734;DHT22;34530;52.084;5.146;2022-12-07T01:17:33;16.20;73.80
48734;DHT22;34530;52.084;5.146;2022-12-07T01:19:59;16.20;73.80
48734;DHT22;34530;52.084;5.146;2022-12-07T01:22:24;16.20;73.90
48734;DHT22;34530;52.084;5.146;2022-12-07T01:24:50;16.20;73.90
48734;DHT22;34530;52.084;5.146;2022-12-07T01:27:16;16.20;73.90
48734;DHT22;34530;52.084;5.146;2022-12-07T01:29:41;16.10;73.80
48734;DHT22;34530;52.084;5.146;2022-12-07T01:32:07;16.10;73.80
48734;DHT22;34530;52.084;5.146;2022-12-07T01:34:33;16.10;73.80
48734;DHT22;34530;52.084;5.146;2022-12-07T01:36:58;16.10;73.80
48734;DHT22;34530;52.084;5.146;2022-12-07T01:39:24;16.10;73.80
48734;DHT22;34530;52.084;5.146;2022-12-07T01:41:50;16.10;73.80
48734;DHT22;34530;52.084;5.146;2022-12-07T01:44:25;16.10;73.80
48734;DHT22;34530;52.084;5.146;2022-12-07T01:46:56;16.10;73.80
48734;DHT22;34530;52.084;5.146;2022-12-07T01:52:01;16.10;73.80
48734;DHT22;34530;52.084;5.146;2022-12-07T01:54:30;16.10;73.80
48734;DHT22;34530;52.084;5.146;2022-12-07T01:56:58;16.00;73.70
48734;DHT22;34530;52.084;5.146;2022-12-07T01:59:25;16.00;73.70
48734;DHT22;34530;52.084;5.146;2022-12-07T02:01:52;16.00;73.70
48734;DHT22;34530;52.084;5.146;2022-12-07T02:04:18;16.00;73.70
48734;DHT22;34530;52.084;5.146;2022-12-07T02:06:44;16.00;73.70
48734;DHT22;34530;52.084;5.146;2022-12-07T02:09:11;16.00;73.70
48734;DHT22;34530;52.084;5.146;2022-12-07T02:11:37;16.00;73.70
48734;DHT22;34530;52.084;5.146;2022-12-07T02:14:03;16.00;73.70
48734;DHT22;34530;52.084;5.146;2022-12-07T02:17:15;16.00;73.70
48734;DHT22;34530;52.084;5.146;2022-12-07T02:28:19;15.90;73.60
48734;DHT22;34530;52.084;5.146;2022-12-07T02:30:52;15.90;73.60
48734;DHT22;34530;52.084;5.146;2022-12-07T02:33:27;15.90;73.70
48734;DHT22;34530;52.084;5.146;2022-12-07T02:38:36;15.90;73.60
48734;DHT22;34530;52.084;5.146;2022-12-07T02:41:29;15.90;73.60
48734;DHT22;34530;52.084;5.146;2022-12-07T02:43:57;15.90;73.60
48734;DHT22;34530;52.084;5.146;2022-12-07T02:46:29;15.90;73.60
48734;DHT22;34530;52.084;5.146;2022-12-07T02:48:56;15.90;73.60
48734;DHT22;34530;52.084;5.146;2022-12-07T02:51:25;15.90;73.60
48734;DHT22;34530;52.084;5.146;2022-12-07T02:53:51;15.90;73.60
48734;DHT22;34530;52.084;5.146;2022-12-07T03:08:02;15.80;73.50
48734;DHT22;34530;52.084;5.146;2022-12-07T03:16:10;15.80;73.60
48734;DHT22;34530;52.084;5.146;2022-12-07T03:18:30;15.70;73.60
48734;DHT22;34530;52.084;5.146;2022-12-07T03:21:02;15.80;73.60
48734;DHT22;34530;52.084;5.146;2022-12-07T03:23:32;15.70;73.50
48734;DHT22;34530;52.084;5.146;2022-12-07T03:26:00;15.70;73.50
48734;DHT22;34530;52.084;5.146;2022-12-07T03:28:32;15.70;73.50
48734;DHT22;34530;52.084;5.146;2022-12-07T03:31:12;15.70;73.50
48734;DHT22;34530;52.084;5.146;2022-12-07T03:33:52;15.70;73.50
48734;DHT22;34530;52.084;5.146;2022-12-07T03:36:23;15.70;73.50
48734;DHT22;34530;52.084;5.146;2022-12-07T03:38:57;15.70;73.50
48734;DHT22;34530;52.084;5.146;2022-12-07T03:41:29;15.70;73.50
48734;DHT22;34530;52.084;5.146;2022-12-07T03:43:57;15.70;73.50
48734;DHT22;34530;52.084;5.146;2022-12-07T03:46:44;15.70;73.50
48734;DHT22;34530;52.084;5.146;2022-12-07T03:49:27;15.70;73.40
48734;DHT22;34530;52.084;5.146;2022-12-07T03:55:06;15.70;73.40
48734;DHT22;34530;52.084;5.146;2022-12-07T03:57:34;15.70;73.40
48734;DHT22;34530;52.084;5.146;2022-12-07T04:00:03;15.60;73.50
48734;DHT22;34530;52.084;5.146;2022-12-07T04:02:32;15.60;73.50
48734;DHT22;34530;52.084;5.146;2022-12-07T04:04:58;15.60;73.40
48734;DHT22;34530;52.084;5.146;2022-12-07T04:07:24;15.60;73.40
48734;DHT22;34530;52.084;5.146;2022-12-07T04:09:50;15.60;73.40
48734;DHT22;34530;52.084;5.146;2022-12-07T04:12:15;15.60;73.40
48734;DHT22;34530;52.084;5.146;2022-12-07T04:14:41;15.60;73.30
48734;DHT22;34530;52.084;5.146;2022-12-07T04:17:08;15.60;73.30
48734;DHT22;34530;52.084;5.146;2022-12-07T04:19:34;15.60;73.30
48734;DHT22;34530;52.084;5.146;2022-12-07T04:22:01;15.60;73.20
48734;DHT22;34530;52.084;5.146;2022-12-07T04:24:27;15.60;73.20
48734;DHT22;34530;52.084;5.146;2022-12-07T04:26:53;15.60;73.20
48734;DHT22;34530;52.084;5.146;2022-12-07T04:29:19;15.70;72.80
48734;DHT22;34530;52.084;5.146;2022-12-07T04:31:45;15.70;72.90
48734;DHT22;34530;52.084;5.146;2022-12-07T04:34:11;15.60;73.70
48734;DHT22;34530;52.084;5.146;2022-12-07T04:36:38;15.60;72.90
48734;DHT22;34530;52.084;5.146;2022-12-07T04:39:04;15.60;72.90
48734;DHT22;34530;52.084;5.146;2022-12-07T04:41:31;15.60;72.90
48734;DHT22;34530;52.084;5.146;2022-12-07T04:44:02;15.60;72.80
48734;DHT22;34530;52.084;5.146;2022-12-07T04:46:30;15.60;72.80
48734;DHT22;34530;52.084;5.146;2022-12-07T04:48:57;15.60;72.80
48734;DHT22;34530;52.084;5.146;2022-12-07T04:51:25;15.60;72.80
48734;DHT22;34530;52.084;5.146;2022-12-07T04:53:52;15.60;72.80
48734;DHT22;34530;52.084;5.146;2022-12-07T04:56:18;15.60;72.80
48734;DHT22;34530;52.084;5.146;2022-12-07T04:58:45;15.50;72.70
48734;DHT22;34530;52.084;5.146;2022-12-07T05:01:12;15.50;72.60
48734;DHT22;34530;52.084;5.146;2022-12-07T05:03:37;15.50;72.60
48734;DHT22;34530;52.084;5.146;2022-12-07T05:06:04;15.50;72.60
48734;DHT22;34530;52.084;5.146;2022-12-07T05:08:30;15.50;72.50
48734;DHT22;34530;52.084;5.146;2022-12-07T05:10:55;15.50;72.60
48734;DHT22;34530;52.084;5.146;2022-12-07T05:13:21;15.50;72.60
48734;DHT22;34530;52.084;5.146;2022-12-07T05:15:47;15.50;72.60
48734;DHT22;34530;52.084;5.146;2022-12-07T05:18:13;15.50;72.50
48734;DHT22;34530;52.084;5.146;2022-12-07T05:20:40;15.50;72.50
48734;DHT22;34530;52.084;5.146;2022-12-07T05:23:06;15.50;72.50
48734;DHT22;34530;52.084;5.146;2022-12-07T05:25:31;15.50;72.40
48734;DHT22;34530;52.084;5.146;2022-12-07T05:27:57;15.50;72.40
48734;DHT22;34530;52.084;5.146;2022-12-07T05:30:24;15.50;72.40
48734;DHT22;34530;52.084;5.146;2022-12-07T05:32:50;15.50;72.40
48734;DHT22;34530;52.084;5.146;2022-12-07T05:35:16;15.50;72.40
48734;DHT22;34530;52.084;5.146;2022-12-07T05:37:41;15.50;72.30
48734;DHT22;34530;52.084;5.146;2022-12-07T05:40:08;15.50;72.30
48734;DHT22;34530;52.084;5.146;2022-12-07T05:42:33;15.50;72.30
48734;DHT22;34530;52.084;5.146;2022-12-07T05:44:59;15.40;72.30
48734;DHT22;34530;52.084;5.146;2022-12-07T05:47:25;15.50;72.30
48734;DHT22;34530;52.084;5.146;2022-12-07T05:49:50;15.50;72.30
48734;DHT22;34530;52.084;5.146;2022-12-07T05:52:16;15.50;72.30
48734;DHT22;34530;52.084;5.146;2022-12-07T05:54:44;15.50;72.30
48734;DHT22;34530;52.084;5.146;2022-12-07T05:57:09;15.40;72.20
48734;DHT22;34530;52.084;5.146;2022-12-07T05:59:36;15.40;72.20
48734;DHT22;34530;52.084;5.146;2022-12-07T06:02:03;15.40;72.20
48734;DHT22;34530;52.084;5.146;2022-12-07T06:04:31;15.40;72.20
48734;DHT22;34530;52.084;5.146;2022-12-07T06:06:57;15.40;72.10
48734;DHT22;34530;52.084;5.146;2022-12-07T06:09:24;15.40;72.10
48734;DHT22;34530;52.084;5.146;2022-12-07T06:11:50;15.40;72.10
48734;DHT22;34530;52.084;5.146;2022-12-07T06:14:34;15.40;72.10
48734;DHT22;34530;52.084;5.146;2022-12-07T06:17:00;15.40;72.10
48734;DHT22;34530;52.084;5.146;2022-12-07T06:19:26;15.40;72.10
48734;DHT22;34530;52.084;5.146;2022-12-07T06:21:51;15.40;72.20
48734;DHT22;34530;52.084;5.146;2022-12-07T06:24:18;15.40;72.10
48734;DHT22;34530;52.084;5.146;2022-12-07T06:26:44;15.40;72.10
48734;DHT22;34530;52.084;5.146;2022-12-07T06:29:11;15.40;72.10
48734;DHT22;34530;52.084;5.146;2022-12-07T06:31:37;15.40;72.10
48734;DHT22;34530;52.084;5.146;2022-12-07T06:34:06;15.40;72.10
48734;DHT22;34530;52.084;5.146;2022-12-07T06:36:32;15.40;72.10
48734;DHT22;34530;52.084;5.146;2022-12-07T06:38:57;15.40;72.10
48734;DHT22;34530;52.084;5.146;2022-12-07T06:41:23;15.30;72.00
48734;DHT22;34530;52.084;5.146;2022-12-07T06:43:50;15.40;72.10
48734;DHT22;34530;52.084;5.146;2022-12-07T06:46:16;15.30;72.00
48734;DHT22;34530;52.084;5.146;2022-12-07T06:48:42;15.40;72.10
48734;DHT22;34530;52.084;5.146;2022-12-07T06:51:08;15.40;72.10
48734;DHT22;34530;52.084;5.146;2022-12-07T06:53:35;15.40;72.10
48734;DHT22;34530;52.084;5.146;2022-12-07T06:56:00;15.40;72.10
48734;DHT22;34530;52.084;5.146;2022-12-07T06:58:26;15.40;72.20
48734;DHT22;34530;52.084;5.146;2022-12-07T07:00:52;15.40;72.30
48734;DHT22;34530;52.084;5.146;2022-12-07T07:03:17;15.40;72.40
48734;DHT22;34530;52.084;5.146;2022-12-07T07:05:44;15.50;72.50
48734;DHT22;34530;52.084;5.146;2022-12-07T07:08:10;15.60;72.60
48734;DHT22;34530;52.084;5.146;2022-12-07T07:10:37;15.70;72.70
48734;DHT22;34530;52.084;5.146;2022-12-07T07:13:03;15.80;72.70
48734;DHT22;34530;52.084;5.146;2022-12-07T07:15:29;15.90;72.60
48734;DHT22;34530;52.084;5.146;2022-12-07T07:17:55;16.00;72.50
48734;DHT22;34530;52.084;5.146;2022-12-07T07:20:21;16.10;72.40
48734;DHT22;34530;52.084;5.146;2022-12-07T07:22:47;16.20;72.20
48734;DHT22;34530;52.084;5.146;2022-12-07T07:25:13;16.30;72.10
48734;DHT22;34530;52.084;5.146;2022-12-07T07:27:39;16.50;71.70
48734;DHT22;34530;52.084;5.146;2022-12-07T07:30:06;16.50;71.70
48734;DHT22;34530;52.084;5.146;2022-12-07T07:32:31;16.60;71.50
48734;DHT22;34530;52.084;5.146;2022-12-07T07:34:57;16.60;71.30
48734;DHT22;34530;52.084;5.146;2022-12-07T07:37:23;16.70;71.20
48734;DHT22;34530;52.084;5.146;2022-12-07T07:39:49;16.70;71.00
48734;DHT22;34530;52.084;5.146;2022-12-07T07:42:15;16.80;70.90
48734;DHT22;34530;52.084;5.146;2022-12-07T07:44:40;16.80;70.80
48734;DHT22;34530;52.084;5.146;2022-12-07T07:47:06;17.00;71.40
48734;DHT22;34530;52.084;5.146;2022-12-07T07:49:32;17.00;71.40
48734;DHT22;34530;52.084;5.146;2022-12-07T07:51:57;17.10;71.40
48734;DHT22;34530;52.084;5.146;2022-12-07T07:54:23;17.10;71.40
48734;DHT22;34530;52.084;5.146;2022-12-07T07:56:49;17.20;71.40
48734;DHT22;34530;52.084;5.146;2022-12-07T07:59:15;17.20;71.30
48734;DHT22;34530;52.084;5.146;2022-12-07T08:01:40;17.20;71.20
48734;DHT22;34530;52.084;5.146;2022-12-07T08:04:06;17.30;71.10
48734;DHT22;34530;52.084;5.146;2022-12-07T08:06:32;17.30;71.10
48734;DHT22;34530;52.084;5.146;2022-12-07T08:08:58;17.30;71.10
48734;DHT22;34530;52.084;5.146;2022-12-07T08:11:24;17.40;71.10
48734;DHT22;34530;52.084;5.146;2022-12-07T08:13:50;17.40;71.10
48734;DHT22;34530;52.084;5.146;2022-12-07T08:16:16;17.40;71.10
48734;DHT22;34530;52.084;5.146;2022-12-07T08:18:42;17.50;71.10
48734;DHT22;34530;52.084;5.146;2022-12-07T08:21:11;17.50;71.00
48734;DHT22;34530;52.084;5.146;2022-12-07T08:23:37;17.50;70.90
48734;DHT22;34530;52.084;5.146;2022-12-07T08:26:08;17.60;70.90
48734;DHT22;34530;52.084;5.146;2022-12-07T08:28:34;17.60;71.00
48734;DHT22;34530;52.084;5.146;2022-12-07T08:31:05;17.70;71.10
48734;DHT22;34530;52.084;5.146;2022-12-07T08:33:31;17.70;71.20
48734;DHT22;34530;52.084;5.146;2022-12-07T08:36:06;17.80;71.40
48734;DHT22;34530;52.084;5.146;2022-12-07T08:38:33;17.80;71.40
48734;DHT22;34530;52.084;5.146;2022-12-07T08:40:59;17.90;71.50
48734;DHT22;34530;52.084;5.146;2022-12-07T08:43:25;17.90;71.60
48734;DHT22;34530;52.084;5.146;2022-12-07T08:49:13;18.00;71.80
48734;DHT22;34530;52.084;5.146;2022-12-07T08:51:40;18.00;71.80
48734;DHT22;34530;52.084;5.146;2022-12-07T08:54:10;18.00;71.80
48734;DHT22;34530;52.084;5.146;2022-12-07T08:56:36;18.00;71.80
48734;DHT22;34530;52.084;5.146;2022-12-07T08:59:03;18.00;71.70
48734;DHT22;34530;52.084;5.146;2022-12-07T09:01:29;18.00;71.80
48734;DHT22;34530;52.084;5.146;2022-12-07T09:03:55;18.10;72.70
48734;DHT22;34530;52.084;5.146;2022-12-07T09:06:20;18.10;71.90
48734;DHT22;34530;52.084;5.146;2022-12-07T09:08:48;18.10;72.00
48734;DHT22;34530;52.084;5.146;2022-12-07T09:11:15;18.10;72.00
48734;DHT22;34530;52.084;5.146;2022-12-07T09:13:41;18.10;72.00
48734;DHT22;34530;52.084;5.146;2022-12-07T09:16:06;18.10;72.10
48734;DHT22;34530;52.084;5.146;2022-12-07T09:18:32;18.20;72.20
48734;DHT22;34530;52.084;5.146;2022-12-07T09:20:58;18.10;72.10
48734;DHT22;34530;52.084;5.146;2022-12-07T09:23:24;18.10;72.10
48734;DHT22;34530;52.084;5.146;2022-12-07T09:25:49;18.10;71.90
48734;DHT22;34530;52.084;5.146;2022-12-07T09:28:15;18.10;71.90
48734;DHT22;34530;52.084;5.146;2022-12-07T09:30:48;18.10;71.90
48734;DHT22;34530;52.084;5.146;2022-12-07T09:33:14;18.10;71.90
48734;DHT22;34530;52.084;5.146;2022-12-07T09:35:47;18.00;71.90
48734;DHT22;34530;52.084;5.146;2022-12-07T09:38:13;18.00;71.90
48734;DHT22;34530;52.084;5.146;2022-12-07T09:40:39;18.00;71.90
48734;DHT22;34530;52.084;5.146;2022-12-07T09:43:08;17.90;71.90
48734;DHT22;34530;52.084;5.146;2022-12-07T09:45:37;17.90;72.70
48734;DHT22;34530;52.084;5.146;2022-12-07T09:48:04;17.80;71.90
48734;DHT22;34530;52.084;5.146;2022-12-07T09:50:30;17.90;71.90
48734;DHT22;34530;52.084;5.146;2022-12-07T09:53:14;18.00;72.00
48734;DHT22;34530;52.084;5.146;2022-12-07T09:55:41;17.90;72.20
48734;DHT22;34530;52.084;5.146;2022-12-07T09:58:19;17.90;72.40
48734;DHT22;34530;52.084;5.146;2022-12-07T10:00:46;17.90;72.50
48734;DHT22;34530;52.084;5.146;2022-12-07T10:03:12;17.80;72.50
48734;DHT22;34530;52.084;5.146;2022-12-07T10:05:44;17.90;72.50
48734;DHT22;34530;52.084;5.146;2022-12-07T10:08:14;17.90;72.50
48734;DHT22;34530;52.084;5.146;2022-12-07T10:10:41;18.00;72.40
48734;DHT22;34530;52.084;5.146;2022-12-07T10:13:09;18.00;72.20
48734;DHT22;34530;52.084;5.146;2022-12-07T10:20:47;18.20;71.60
48734;DHT22;34530;52.084;5.146;2022-12-07T10:23:17;18.30;71.50
48734;DHT22;34530;52.084;5.146;2022-12-07T10:25:44;18.30;71.40
48734;DHT22;34530;52.084;5.146;2022-12-07T10:28:15;18.30;71.20
48734;DHT22;34530;52.084;5.146;2022-12-07T10:30:48;18.40;71.10
48734;DHT22;34530;52.084;5.146;2022-12-07T10:33:36;18.40;70.90
48734;DHT22;34530;52.084;5.146;2022-12-07T10:36:27;18.40;70.80
48734;DHT22;34530;52.084;5.146;2022-12-07T10:41:27;18.50;70.60
48734;DHT22;34530;52.084;5.146;2022-12-07T10:43:55;18.50;70.60
48734;DHT22;34530;52.084;5.146;2022-12-07T10:49:05;18.50;70.40
48734;DHT22;34530;52.084;5.146;2022-12-07T10:51:39;18.50;70.40
48734;DHT22;34530;52.084;5.146;2022-12-07T10:54:18;18.50;70.10
48734;DHT22;34530;52.084;5.146;2022-12-07T10:57:01;18.50;69.70
48734;DHT22;34530;52.084;5.146;2022-12-07T10:59:41;18.40;69.20
48734;DHT22;34530;52.084;5.146;2022-12-07T11:07:59;18.30;68.90
48734;DHT22;34530;52.084;5.146;2022-12-07T11:10:35;18.30;69.10
48734;DHT22;34530;52.084;5.146;2022-12-07T11:18:27;18.20;69.40
48734;DHT22;34530;52.084;5.146;2022-12-07T11:31:35;18.10;69.80
48734;DHT22;34530;52.084;5.146;2022-12-07T11:34:08;18.10;69.90
48734;DHT22;34530;52.084;5.146;2022-12-07T11:36:41;18.10;70.00
48734;DHT22;34530;52.084;5.146;2022-12-07T11:39:30;18.10;70.00
48734;DHT22;34530;52.084;5.146;2022-12-07T11:42:25;18.00;70.00
48734;DHT22;34530;52.084;5.146;2022-12-07T11:45:15;18.10;70.10
48734;DHT22;34530;52.084;5.146;2022-12-07T11:47:54;18.10;70.00
48734;DHT22;34530;52.084;5.146;2022-12-07T11:50:34;18.10;70.00
48734;DHT22;34530;52.084;5.146;2022-12-07T11:53:26;18.10;69.90
48734;DHT22;34530;52.084;5.146;2022-12-07T11:55:57;18.10;69.90
48734;DHT22;34530;52.084;5.146;2022-12-07T12:01:50;18.00;69.70
48734;DHT22;34530;52.084;5.146;2022-12-07T12:04:37;18.10;69.70
48734;DHT22;34530;52.084;5.146;2022-12-07T12:07:06;18.00;69.70
48734;DHT22;34530;52.084;5.146;2022-12-07T12:09:40;18.00;69.70
48734;DHT22;34530;52.084;5.146;2022-12-07T12:23:20;18.00;69.70
48734;DHT22;34530;52.084;5.146;2022-12-07T12:25:50;18.00;69.60
48734;DHT22;34530;52.084;5.146;2022-12-07T12:28:22;18.00;69.70
48734;DHT22;34530;52.084;5.146;2022-12-07T12:31:09;18.00;69.90
48734;DHT22;34530;52.084;5.146;2022-12-07T12:33:37;18.00;70.00
48734;DHT22;34530;52.084;5.146;2022-12-07T12:38:48;18.00;70.20
48734;DHT22;34530;52.084;5.146;2022-12-07T12:47:01;18.40;69.90
48734;DHT22;34530;52.084;5.146;2022-12-07T12:49:43;18.30;70.10
48734;DHT22;34530;52.084;5.146;2022-12-07T12:57:35;18.30;70.20
48734;DHT22;34530;52.084;5.146;2022-12-07T13:00:24;18.20;70.10
48734;DHT22;34530;52.084;5.146;2022-12-07T13:02:54;18.20;70.10
48734;DHT22;34530;52.084;5.146;2022-12-07T13:05:24;18.30;70.20
48734;DHT22;34530;52.084;5.146;2022-12-07T13:15:51;18.30;70.30
48734;DHT22;34530;52.084;5.146;2022-12-07T13:20:55;18.30;70.40
48734;DHT22;34530;52.084;5.146;2022-12-07T13:24:08;18.30;70.40
48734;DHT22;34530;52.084;5.146;2022-12-07T13:29:16;18.30;70.50
48734;DHT22;34530;52.084;5.146;2022-12-07T13:31:54;18.30;70.50
48734;DHT22;34530;52.084;5.146;2022-12-07T13:37:09;18.30;70.50
48734;DHT22;34530;52.084;5.146;2022-12-07T13:39:45;18.30;70.60
48734;DHT22;34530;52.084;5.146;2022-12-07T13:42:21;18.30;70.50
48734;DHT22;34530;52.084;5.146;2022-12-07T13:44:49;18.30;70.60
48734;DHT22;34530;52.084;5.146;2022-12-07T13:49:54;18.30;70.50
48734;DHT22;34530;52.084;5.146;2022-12-07T13:52:31;18.30;70.40
48734;DHT22;34530;52.084;5.146;2022-12-07T13:57:33;18.30;70.40
48734;DHT22;34530;52.084;5.146;2022-12-07T14:00:01;18.30;70.30
48734;DHT22;34530;52.084;5.146;2022-12-07T14:02:33;18.30;70.10
48734;DHT22;34530;52.084;5.146;2022-12-07T14:07:56;18.30;69.60
48734;DHT22;34530;52.084;5.146;2022-12-07T14:12:52;18.30;69.60
48734;DHT22;34530;52.084;5.146;2022-12-07T14:15:24;18.30;69.80
48734;DHT22;34530;52.084;5.146;2022-12-07T14:17:54;18.30;69.90
48734;DHT22;34530;52.084;5.146;2022-12-07T14:23:01;18.40;69.90
48734;DHT22;34530;52.084;5.146;2022-12-07T14:25:45;18.40;69.90
48734;DHT22;34530;52.084;5.146;2022-12-07T14:30:51;18.50;69.80
48734;DHT22;34530;52.084;5.146;2022-12-07T14:33:17;18.60;69.60
48734;DHT22;34530;52.084;5.146;2022-12-07T14:35:43;18.60;69.50
48734;DHT22;34530;52.084;5.146;2022-12-07T14:38:08;18.60;69.30
48734;DHT22;34530;52.084;5.146;2022-12-07T14:40:34;18.70;69.10
48734;DHT22;34530;52.084;5.146;2022-12-07T14:43:14;18.80;69.00
48734;DHT22;34530;52.084;5.146;2022-12-07T14:45:41;18.80;68.80
48734;DHT22;34530;52.084;5.146;2022-12-07T14:48:16;18.90;68.50
48734;DHT22;34530;52.084;5.146;2022-12-07T14:50:49;18.90;68.30
48734;DHT22;34530;52.084;5.146;2022-12-07T14:53:18;19.00;68.00
48734;DHT22;34530;52.084;5.146;2022-12-07T14:55:44;19.10;67.80
48734;DHT22;34530;52.084;5.146;2022-12-07T14:58:17;19.10;68.50
48734;DHT22;34530;52.084;5.146;2022-12-07T15:00:43;19.20;67.50
48734;DHT22;34530;52.084;5.146;2022-12-07T15:03:09;19.20;67.30
48734;DHT22;34530;52.084;5.146;2022-12-07T15:05:36;19.20;67.10
48734;DHT22;34530;52.084;5.146;2022-12-07T15:08:02;19.40;65.90
48734;DHT22;34530;52.084;5.146;2022-12-07T15:10:30;19.40;66.00
48734;DHT22;34530;52.084;5.146;2022-12-07T15:13:02;19.40;65.80
48734;DHT22;34530;52.084;5.146;2022-12-07T15:15:48;19.50;64.70
48734;DHT22;34530;52.084;5.146;2022-12-07T15:18:14;19.50;65.10
48734;DHT22;34530;52.084;5.146;2022-12-07T15:20:39;19.50;65.10
48734;DHT22;34530;52.084;5.146;2022-12-07T15:23:05;19.40;64.90
48734;DHT22;34530;52.084;5.146;2022-12-07T15:25:31;19.40;64.90
48734;DHT22;34530;52.084;5.146;2022-12-07T15:27:56;19.40;64.70
48734;DHT22;34530;52.084;5.146;2022-12-07T15:30:22;19.40;64.70
48734;DHT22;34530;52.084;5.146;2022-12-07T15:32:51;19.40;64.70
48734;DHT22;34530;52.084;5.146;2022-12-07T15:35:17;19.50;64.80
48734;DHT22;34530;52.084;5.146;2022-12-07T15:37:43;19.50;64.70
48734;DHT22;34530;52.084;5.146;2022-12-07T15:40:09;19.50;64.60
48734;DHT22;34530;52.084;5.146;2022-12-07T15:42:35;19.50;64.50
48734;DHT22;34530;52.084;5.146;2022-12-07T15:45:02;19.50;64.40
48734;DHT22;34530;52.084;5.146;2022-12-07T15:47:35;19.50;64.30
48734;DHT22;34530;52.084;5.146;2022-12-07T15:50:05;19.50;64.30
48734;DHT22;34530;52.084;5.146;2022-12-07T15:52:31;19.60;65.10
48734;DHT22;34530;52.084;5.146;2022-12-07T15:54:57;19.60;64.50
48734;DHT22;34530;52.084;5.146;2022-12-07T15:57:25;19.60;64.20
48734;DHT22;34530;52.084;5.146;2022-12-07T15:59:51;19.60;64.10
48734;DHT22;34530;52.084;5.146;2022-12-07T16:02:16;19.60;64.10
48734;DHT22;34530;52.084;5.146;2022-12-07T16:04:42;19.60;64.00
48734;DHT22;34530;52.084;5.146;2022-12-07T16:07:08;19.60;64.00
48734;DHT22;34530;52.084;5.146;2022-12-07T16:09:33;19.60;63.90
48734;DHT22;34530;52.084;5.146;2022-12-07T16:11:59;19.70;63.90
48734;DHT22;34530;52.084;5.146;2022-12-07T16:14:24;19.60;63.80
48734;DHT22;34530;52.084;5.146;2022-12-07T16:16:50;19.70;63.70
48734;DHT22;34530;52.084;5.146;2022-12-07T16:19:16;19.70;63.60
48734;DHT22;34530;52.084;5.146;2022-12-07T16:21:41;19.90;62.80
48734;DHT22;34530;52.084;5.146;2022-12-07T16:24:08;19.80;63.20
48734;DHT22;34530;52.084;5.146;2022-12-07T16:26:35;19.80;63.00
48734;DHT22;34530;52.084;5.146;2022-12-07T16:29:01;19.80;63.10
48734;DHT22;34530;52.084;5.146;2022-12-07T16:31:27;19.80;63.10
48734;DHT22;34530;52.084;5.146;2022-12-07T16:33:55;19.80;63.00
48734;DHT22;34530;52.084;5.146;2022-12-07T16:36:22;19.90;62.40
48734;DHT22;34530;52.084;5.146;2022-12-07T16:38:50;19.90;62.80
48734;DHT22;34530;52.084;5.146;2022-12-07T16:41:15;19.80;62.90
48734;DHT22;34530;52.084;5.146;2022-12-07T16:43:41;19.80;63.00
48734;DHT22;34530;52.084;5.146;2022-12-07T16:46:07;19.80;63.20
48734;DHT22;34530;52.084;5.146;2022-12-07T16:48:37;19.70;63.20
48734;DHT22;34530;52.084;5.146;2022-12-07T16:51:07;19.80;63.30
48734;DHT22;34530;52.084;5.146;2022-12-07T16:53:38;19.70;63.20
48734;DHT22;34530;52.084;5.146;2022-12-07T16:56:09;19.70;63.30
48734;DHT22;34530;52.084;5.146;2022-12-07T16:58:34;19.70;63.30
48734;DHT22;34530;52.084;5.146;2022-12-07T17:01:18;19.80;63.40
48734;DHT22;34530;52.084;5.146;2022-12-07T17:03:45;19.80;63.50
48734;DHT22;34530;52.084;5.146;2022-12-07T17:06:16;19.80;63.60
48734;DHT22;34530;52.084;5.146;2022-12-07T17:08:42;19.90;63.70
48734;DHT22;34530;52.084;5.146;2022-12-07T17:13:37;20.00;63.50
48734;DHT22;34530;52.084;5.146;2022-12-07T17:16:22;20.00;63.40
48734;DHT22;34530;52.084;5.146;2022-12-07T17:18:47;20.00;63.40
48734;DHT22;34530;52.084;5.146;2022-12-07T17:21:13;20.00;63.40
48734;DHT22;34530;52.084;5.146;2022-12-07T17:23:38;20.00;63.40
48734;DHT22;34530;52.084;5.146;2022-12-07T17:26:09;20.00;63.50
48734;DHT22;34530;52.084;5.146;2022-12-07T17:28:36;20.00;63.60
48734;DHT22;34530;52.084;5.146;2022-12-07T17:31:04;20.00;63.60
48734;DHT22;34530;52.084;5.146;2022-12-07T17:33:31;20.00;63.70
48734;DHT22;34530;52.084;5.146;2022-12-07T17:35:57;19.90;63.80
48734;DHT22;34530;52.084;5.146;2022-12-07T17:38:22;19.90;63.90
48734;DHT22;34530;52.084;5.146;2022-12-07T17:40:48;19.90;63.90
48734;DHT22;34530;52.084;5.146;2022-12-07T17:43:13;19.90;64.00
48734;DHT22;34530;52.084;5.146;2022-12-07T17:45:39;19.90;64.10
48734;DHT22;34530;52.084;5.146;2022-12-07T17:48:05;19.80;64.00
48734;DHT22;34530;52.084;5.146;2022-12-07T17:50:31;19.80;64.10
48734;DHT22;34530;52.084;5.146;2022-12-07T17:53:14;19.80;64.20
48734;DHT22;34530;52.084;5.146;2022-12-07T17:55:40;19.80;64.30